Aérodrome :
LOGIN :

S'inscrire | Disclaimer

   EN    FR    IT 

 










Légende :    VFR   VFR Marginal   IFR   IFR Intensif   IFR Très Intensif
Visi : 
Plafond : 
>= 8 km
>= 3000ft
5 à 8 km
1000 à 3000 ft
1500m à 5 km
500 à 1000 ft
800 à 1500m
200 à 500 ft
< 800m
< 200 ft
Symboles :   Orages  Brouillard  Fortes neiges  Fortes précipitations  Vent > 20 kt
SIGMETs :   Divers  Orages  Givrage  Turbulence  Onde Orograph.  Cendres Volcan.






- Altitude de l'aérodrome : 628 ft
- Code IATA : CMR


LFGA - Colmar-Houssen

DERNIER METAR :
  • 072100Z AUTO 18011KT 9999 BKN042 OVC049 08/06 Q1019

METARs EXPIRÉS :
  • 072030Z AUTO 18011KT 9999 BKN044 OVC052 08/06 Q1020
  • 072000Z AUTO 18010KT 9999 BKN049 OVC056 09/06 Q1020
  • 071930Z AUTO 18009KT 9999 OVC049 09/07 Q1020
  • 071900Z AUTO 19006KT 9999 OVC050 08/06 Q1020
  • 071830Z AUTO VRB01KT 9999 OVC049 07/05 Q1020

TAF N/A



MET'MAP, la Météo Aéronautique d'un coup d'oeil ! - Copyright ORBIFLY Décembre 2007 - Disclaimer

ORBIFLY MET'MAP TEAM :

Programmation & Développement : Alexandra Zaïnal
Sur une idée originale de : Baudouin d'Aumeries
Assistance à la programmation : Marc-Olivier Méhu
Soutien technique & logistique : Manuel Goepfert

Contact : metmap@orbifly.com




SOURCES & CREDITS :

   NOAA